sensor_id;sensor_type;location;lat;lon;timestamp;P1;durP1;ratioP1;P2;durP2;ratioP2
10303;SDS011;5197;48.152;8.590;2022-08-21T00:01:49;3.40;;;3.20;;
10303;SDS011;5197;48.152;8.590;2022-08-21T00:04:16;3.67;;;3.07;;
10303;SDS011;5197;48.152;8.590;2022-08-21T00:06:47;5.73;;;2.90;;
10303;SDS011;5197;48.152;8.590;2022-08-21T00:09:14;4.50;;;3.47;;
10303;SDS011;5197;48.152;8.590;2022-08-21T00:11:41;3.77;;;3.47;;
10303;SDS011;5197;48.152;8.590;2022-08-21T00:14:09;3.77;;;3.40;;
10303;SDS011;5197;48.152;8.590;2022-08-21T00:16:37;4.37;;;3.17;;
10303;SDS011;5197;48.152;8.590;2022-08-21T00:19:05;3.03;;;2.83;;
10303;SDS011;5197;48.152;8.590;2022-08-21T00:21:33;4.57;;;2.87;;
10303;SDS011;5197;48.152;8.590;2022-08-21T00:24:01;5.53;;;3.60;;
10303;SDS011;5197;48.152;8.590;2022-08-21T00:26:28;3.13;;;2.93;;
10303;SDS011;5197;48.152;8.590;2022-08-21T00:28:55;3.40;;;2.53;;
10303;SDS011;5197;48.152;8.590;2022-08-21T00:31:24;3.70;;;3.40;;
10303;SDS011;5197;48.152;8.590;2022-08-21T00:33:51;2.97;;;2.73;;
10303;SDS011;5197;48.152;8.590;2022-08-21T00:36:26;3.87;;;2.80;;
10303;SDS011;5197;48.152;8.590;2022-08-21T00:38:53;5.37;;;2.60;;
10303;SDS011;5197;48.152;8.590;2022-08-21T00:41:21;4.73;;;2.87;;
10303;SDS011;5197;48.152;8.590;2022-08-21T00:44:08;3.40;;;3.10;;
10303;SDS011;5197;48.152;8.590;2022-08-21T00:46:38;3.30;;;2.93;;
10303;SDS011;5197;48.152;8.590;2022-08-21T00:49:06;3.10;;;2.80;;
10303;SDS011;5197;48.152;8.590;2022-08-21T00:51:39;2.87;;;2.70;;
10303;SDS011;5197;48.152;8.590;2022-08-21T00:54:10;2.80;;;2.60;;
10303;SDS011;5197;48.152;8.590;2022-08-21T00:56:45;3.43;;;2.70;;
10303;SDS011;5197;48.152;8.590;2022-08-21T00:59:16;3.17;;;2.90;;
10303;SDS011;5197;48.152;8.590;2022-08-21T01:01:45;3.60;;;2.63;;
10303;SDS011;5197;48.152;8.590;2022-08-21T01:04:12;2.47;;;2.33;;
10303;SDS011;5197;48.152;8.590;2022-08-21T01:06:39;2.30;;;2.20;;
10303;SDS011;5197;48.152;8.590;2022-08-21T01:09:06;2.60;;;2.40;;
10303;SDS011;5197;48.152;8.590;2022-08-21T01:11:33;5.30;;;2.50;;
10303;SDS011;5197;48.152;8.590;2022-08-21T01:14:00;2.93;;;2.30;;
10303;SDS011;5197;48.152;8.590;2022-08-21T01:16:28;4.27;;;2.40;;
10303;SDS011;5197;48.152;8.590;2022-08-21T01:18:55;2.43;;;2.20;;
10303;SDS011;5197;48.152;8.590;2022-08-21T01:21:24;4.60;;;2.50;;
10303;SDS011;5197;48.152;8.590;2022-08-21T01:23:54;2.67;;;2.57;;
10303;SDS011;5197;48.152;8.590;2022-08-21T01:26:24;2.50;;;2.40;;
10303;SDS011;5197;48.152;8.590;2022-08-21T01:31:30;2.70;;;2.50;;
10303;SDS011;5197;48.152;8.590;2022-08-21T01:33:59;4.50;;;2.20;;
10303;SDS011;5197;48.152;8.590;2022-08-21T01:36:26;3.33;;;2.17;;
10303;SDS011;5197;48.152;8.590;2022-08-21T01:38:53;4.47;;;2.20;;
10303;SDS011;5197;48.152;8.590;2022-08-21T01:41:21;2.13;;;2.03;;
10303;SDS011;5197;48.152;8.590;2022-08-21T01:43:48;2.40;;;2.00;;
10303;SDS011;5197;48.152;8.590;2022-08-21T01:46:15;2.23;;;2.03;;
10303;SDS011;5197;48.152;8.590;2022-08-21T01:48:42;4.57;;;2.40;;
10303;SDS011;5197;48.152;8.590;2022-08-21T01:51:09;2.60;;;2.20;;
10303;SDS011;5197;48.152;8.590;2022-08-21T01:53:37;2.60;;;2.40;;
10303;SDS011;5197;48.152;8.590;2022-08-21T01:56:05;3.17;;;2.73;;
10303;SDS011;5197;48.152;8.590;2022-08-21T01:58:38;2.67;;;2.47;;
10303;SDS011;5197;48.152;8.590;2022-08-21T02:01:07;4.30;;;2.60;;
10303;SDS011;5197;48.152;8.590;2022-08-21T02:03:36;2.67;;;2.57;;
10303;SDS011;5197;48.152;8.590;2022-08-21T02:06:04;5.80;;;2.93;;
10303;SDS011;5197;48.152;8.590;2022-08-21T02:08:33;4.80;;;3.30;;
10303;SDS011;5197;48.152;8.590;2022-08-21T02:11:00;4.40;;;2.73;;
10303;SDS011;5197;48.152;8.590;2022-08-21T02:13:27;3.50;;;2.60;;
10303;SDS011;5197;48.152;8.590;2022-08-21T02:15:54;3.37;;;3.10;;
10303;SDS011;5197;48.152;8.590;2022-08-21T02:18:21;3.00;;;2.80;;
10303;SDS011;5197;48.152;8.590;2022-08-21T02:20:50;2.73;;;2.63;;
10303;SDS011;5197;48.152;8.590;2022-08-21T02:23:22;8.13;;;3.23;;
10303;SDS011;5197;48.152;8.590;2022-08-21T02:26:02;2.40;;;2.30;;
10303;SDS011;5197;48.152;8.590;2022-08-21T02:28:31;3.50;;;2.50;;
10303;SDS011;5197;48.152;8.590;2022-08-21T02:30:59;3.20;;;2.93;;
10303;SDS011;5197;48.152;8.590;2022-08-21T02:33:26;4.23;;;2.80;;
10303;SDS011;5197;48.152;8.590;2022-08-21T02:35:53;3.13;;;2.87;;
10303;SDS011;5197;48.152;8.590;2022-08-21T02:38:22;3.10;;;2.60;;
10303;SDS011;5197;48.152;8.590;2022-08-21T02:40:52;2.90;;;2.70;;
10303;SDS011;5197;48.152;8.590;2022-08-21T02:43:21;3.23;;;3.03;;
10303;SDS011;5197;48.152;8.590;2022-08-21T02:45:50;3.60;;;2.70;;
10303;SDS011;5197;48.152;8.590;2022-08-21T02:48:19;5.77;;;2.80;;
10303;SDS011;5197;48.152;8.590;2022-08-21T02:50:53;2.80;;;2.70;;
10303;SDS011;5197;48.152;8.590;2022-08-21T02:53:28;2.87;;;2.63;;
10303;SDS011;5197;48.152;8.590;2022-08-21T02:55:56;4.03;;;2.57;;
10303;SDS011;5197;48.152;8.590;2022-08-21T02:58:26;3.13;;;2.90;;
10303;SDS011;5197;48.152;8.590;2022-08-21T03:00:57;2.87;;;2.53;;
10303;SDS011;5197;48.152;8.590;2022-08-21T03:03:25;3.47;;;2.60;;
10303;SDS011;5197;48.152;8.590;2022-08-21T03:05:53;3.40;;;2.63;;
10303;SDS011;5197;48.152;8.590;2022-08-21T03:08:21;3.00;;;2.80;;
10303;SDS011;5197;48.152;8.590;2022-08-21T03:10:53;3.37;;;3.00;;
10303;SDS011;5197;48.152;8.590;2022-08-21T03:13:20;3.30;;;3.00;;
10303;SDS011;5197;48.152;8.590;2022-08-21T03:15:48;3.07;;;2.87;;
10303;SDS011;5197;48.152;8.590;2022-08-21T03:18:16;4.80;;;2.67;;
10303;SDS011;5197;48.152;8.590;2022-08-21T03:20:44;4.10;;;2.60;;
10303;SDS011;5197;48.152;8.590;2022-08-21T03:23:15;3.13;;;2.60;;
10303;SDS011;5197;48.152;8.590;2022-08-21T03:25:45;4.10;;;2.80;;
10303;SDS011;5197;48.152;8.590;2022-08-21T03:28:16;3.10;;;2.80;;
10303;SDS011;5197;48.152;8.590;2022-08-21T03:30:45;3.30;;;3.00;;
10303;SDS011;5197;48.152;8.590;2022-08-21T03:33:15;5.27;;;2.77;;
10303;SDS011;5197;48.152;8.590;2022-08-21T03:35:47;3.17;;;2.80;;
10303;SDS011;5197;48.152;8.590;2022-08-21T03:38:19;3.20;;;2.80;;
10303;SDS011;5197;48.152;8.590;2022-08-21T03:40:51;3.77;;;2.83;;
10303;SDS011;5197;48.152;8.590;2022-08-21T03:43:19;3.47;;;2.50;;
10303;SDS011;5197;48.152;8.590;2022-08-21T03:45:46;3.53;;;2.87;;
10303;SDS011;5197;48.152;8.590;2022-08-21T03:48:13;2.80;;;2.60;;
10303;SDS011;5197;48.152;8.590;2022-08-21T03:50:41;3.43;;;2.67;;
10303;SDS011;5197;48.152;8.590;2022-08-21T03:53:10;2.80;;;2.70;;
10303;SDS011;5197;48.152;8.590;2022-08-21T03:55:46;3.00;;;2.70;;
10303;SDS011;5197;48.152;8.590;2022-08-21T03:58:16;2.67;;;2.47;;
10303;SDS011;5197;48.152;8.590;2022-08-21T04:00:45;4.87;;;2.80;;
10303;SDS011;5197;48.152;8.590;2022-08-21T04:03:13;2.63;;;2.43;;
10303;SDS011;5197;48.152;8.590;2022-08-21T04:05:41;3.27;;;2.70;;
10303;SDS011;5197;48.152;8.590;2022-08-21T04:08:08;6.20;;;2.80;;
10303;SDS011;5197;48.152;8.590;2022-08-21T04:10:36;6.50;;;2.70;;
10303;SDS011;5197;48.152;8.590;2022-08-21T04:13:05;3.67;;;2.80;;
10303;SDS011;5197;48.152;8.590;2022-08-21T04:15:33;4.53;;;2.40;;
10303;SDS011;5197;48.152;8.590;2022-08-21T04:18:02;3.20;;;2.60;;
10303;SDS011;5197;48.152;8.590;2022-08-21T04:20:29;2.87;;;2.57;;
10303;SDS011;5197;48.152;8.590;2022-08-21T04:22:56;3.87;;;2.20;;
10303;SDS011;5197;48.152;8.590;2022-08-21T04:25:24;2.70;;;2.50;;
10303;SDS011;5197;48.152;8.590;2022-08-21T04:27:53;2.77;;;2.40;;
10303;SDS011;5197;48.152;8.590;2022-08-21T04:30:21;3.17;;;2.90;;
10303;SDS011;5197;48.152;8.590;2022-08-21T04:32:54;3.40;;;2.53;;
10303;SDS011;5197;48.152;8.590;2022-08-21T04:35:24;4.80;;;2.50;;
10303;SDS011;5197;48.152;8.590;2022-08-21T04:37:53;2.87;;;2.60;;
10303;SDS011;5197;48.152;8.590;2022-08-21T04:40:21;5.03;;;2.30;;
10303;SDS011;5197;48.152;8.590;2022-08-21T04:42:51;2.53;;;2.10;;
10303;SDS011;5197;48.152;8.590;2022-08-21T04:45:30;4.50;;;2.70;;
10303;SDS011;5197;48.152;8.590;2022-08-21T04:48:00;3.50;;;2.73;;
10303;SDS011;5197;48.152;8.590;2022-08-21T04:50:30;2.40;;;2.20;;
10303;SDS011;5197;48.152;8.590;2022-08-21T04:53:11;4.87;;;2.33;;
10303;SDS011;5197;48.152;8.590;2022-08-21T04:55:44;3.90;;;2.40;;
10303;SDS011;5197;48.152;8.590;2022-08-21T04:58:13;6.20;;;2.43;;
10303;SDS011;5197;48.152;8.590;2022-08-21T05:00:43;2.80;;;2.60;;
10303;SDS011;5197;48.152;8.590;2022-08-21T05:03:11;3.33;;;2.40;;
10303;SDS011;5197;48.152;8.590;2022-08-21T05:05:41;3.13;;;2.80;;
10303;SDS011;5197;48.152;8.590;2022-08-21T05:08:09;3.00;;;2.80;;
10303;SDS011;5197;48.152;8.590;2022-08-21T05:10:40;4.03;;;2.93;;
10303;SDS011;5197;48.152;8.590;2022-08-21T05:13:09;4.23;;;2.90;;
10303;SDS011;5197;48.152;8.590;2022-08-21T05:15:39;4.27;;;2.70;;
10303;SDS011;5197;48.152;8.590;2022-08-21T05:18:06;7.13;;;2.80;;
10303;SDS011;5197;48.152;8.590;2022-08-21T05:20:33;3.40;;;2.60;;
10303;SDS011;5197;48.152;8.590;2022-08-21T05:23:01;3.73;;;2.60;;
10303;SDS011;5197;48.152;8.590;2022-08-21T05:25:33;3.77;;;3.07;;
10303;SDS011;5197;48.152;8.590;2022-08-21T05:28:01;3.40;;;3.07;;
10303;SDS011;5197;48.152;8.590;2022-08-21T05:30:28;3.20;;;2.90;;
10303;SDS011;5197;48.152;8.590;2022-08-21T05:32:56;4.43;;;3.27;;
10303;SDS011;5197;48.152;8.590;2022-08-21T05:35:25;5.90;;;2.77;;
10303;SDS011;5197;48.152;8.590;2022-08-21T05:37:53;4.27;;;3.00;;
10303;SDS011;5197;48.152;8.590;2022-08-21T05:40:20;3.30;;;3.00;;
10303;SDS011;5197;48.152;8.590;2022-08-21T05:42:52;6.27;;;2.70;;
10303;SDS011;5197;48.152;8.590;2022-08-21T05:45:21;4.57;;;2.90;;
10303;SDS011;5197;48.152;8.590;2022-08-21T05:48:12;2.93;;;2.73;;
10303;SDS011;5197;48.152;8.590;2022-08-21T05:50:42;4.73;;;2.87;;
10303;SDS011;5197;48.152;8.590;2022-08-21T05:53:10;4.43;;;3.07;;
10303;SDS011;5197;48.152;8.590;2022-08-21T05:55:37;4.90;;;3.43;;
10303;SDS011;5197;48.152;8.590;2022-08-21T05:58:11;5.33;;;3.10;;
10303;SDS011;5197;48.152;8.590;2022-08-21T06:00:43;6.93;;;3.53;;
10303;SDS011;5197;48.152;8.590;2022-08-21T06:03:15;4.27;;;3.20;;
10303;SDS011;5197;48.152;8.590;2022-08-21T06:05:46;5.00;;;3.00;;
10303;SDS011;5197;48.152;8.590;2022-08-21T06:08:14;3.17;;;2.77;;
10303;SDS011;5197;48.152;8.590;2022-08-21T06:10:42;5.30;;;2.83;;
10303;SDS011;5197;48.152;8.590;2022-08-21T06:13:10;4.27;;;2.33;;
10303;SDS011;5197;48.152;8.590;2022-08-21T06:15:38;2.27;;;2.13;;
10303;SDS011;5197;48.152;8.590;2022-08-21T06:18:05;2.63;;;2.10;;
10303;SDS011;5197;48.152;8.590;2022-08-21T06:20:32;2.93;;;2.13;;
10303;SDS011;5197;48.152;8.590;2022-08-21T06:23:00;2.17;;;1.60;;
10303;SDS011;5197;48.152;8.590;2022-08-21T06:25:28;3.57;;;1.80;;
10303;SDS011;5197;48.152;8.590;2022-08-21T06:28:02;3.70;;;1.90;;
10303;SDS011;5197;48.152;8.590;2022-08-21T06:30:31;2.07;;;1.93;;
10303;SDS011;5197;48.152;8.590;2022-08-21T06:32:59;4.70;;;2.10;;
10303;SDS011;5197;48.152;8.590;2022-08-21T06:35:26;3.83;;;2.27;;
10303;SDS011;5197;48.152;8.590;2022-08-21T06:37:55;2.40;;;1.70;;
10303;SDS011;5197;48.152;8.590;2022-08-21T06:40:24;5.45;;;1.90;;
10303;SDS011;5197;48.152;8.590;2022-08-21T06:42:54;2.75;;;1.90;;
10303;SDS011;5197;48.152;8.590;2022-08-21T06:45:22;1.88;;;1.70;;
10303;SDS011;5197;48.152;8.590;2022-08-21T06:47:49;5.30;;;1.92;;
10303;SDS011;5197;48.152;8.590;2022-08-21T06:50:16;3.28;;;1.98;;
10303;SDS011;5197;48.152;8.590;2022-08-21T06:52:43;2.10;;;1.80;;
10303;SDS011;5197;48.152;8.590;2022-08-21T06:55:10;2.10;;;1.90;;
10303;SDS011;5197;48.152;8.590;2022-08-21T06:57:46;3.97;;;2.03;;
10303;SDS011;5197;48.152;8.590;2022-08-21T07:00:18;1.80;;;1.63;;
10303;SDS011;5197;48.152;8.590;2022-08-21T07:02:45;2.78;;;2.40;;
10303;SDS011;5197;48.152;8.590;2022-08-21T07:05:12;6.60;;;3.20;;
10303;SDS011;5197;48.152;8.590;2022-08-21T07:07:43;5.47;;;3.63;;
10303;SDS011;5197;48.152;8.590;2022-08-21T07:10:11;4.78;;;4.25;;
10303;SDS011;5197;48.152;8.590;2022-08-21T07:12:48;6.25;;;3.60;;
10303;SDS011;5197;48.152;8.590;2022-08-21T07:15:27;5.88;;;3.35;;
10303;SDS011;5197;48.152;8.590;2022-08-21T07:17:56;6.50;;;2.60;;
10303;SDS011;5197;48.152;8.590;2022-08-21T07:20:27;2.70;;;2.50;;
10303;SDS011;5197;48.152;8.590;2022-08-21T07:22:59;3.05;;;2.30;;
10303;SDS011;5197;48.152;8.590;2022-08-21T07:25:29;6.72;;;2.40;;
10303;SDS011;5197;48.152;8.590;2022-08-21T07:27:56;3.47;;;2.63;;
10303;SDS011;5197;48.152;8.590;2022-08-21T07:30:23;3.45;;;2.35;;
10303;SDS011;5197;48.152;8.590;2022-08-21T07:32:51;4.93;;;2.40;;
10303;SDS011;5197;48.152;8.590;2022-08-21T07:35:18;4.55;;;2.55;;
10303;SDS011;5197;48.152;8.590;2022-08-21T07:37:46;5.07;;;2.03;;
10303;SDS011;5197;48.152;8.590;2022-08-21T07:40:14;3.05;;;1.92;;
10303;SDS011;5197;48.152;8.590;2022-08-21T07:42:44;4.15;;;1.70;;
10303;SDS011;5197;48.152;8.590;2022-08-21T07:45:18;3.72;;;1.77;;
10303;SDS011;5197;48.152;8.590;2022-08-21T07:47:47;2.55;;;1.80;;
10303;SDS011;5197;48.152;8.590;2022-08-21T07:50:20;3.03;;;1.90;;
10303;SDS011;5197;48.152;8.590;2022-08-21T07:52:47;1.52;;;1.42;;
10303;SDS011;5197;48.152;8.590;2022-08-21T07:55:16;2.60;;;1.50;;
10303;SDS011;5197;48.152;8.590;2022-08-21T07:57:44;1.70;;;1.60;;
10303;SDS011;5197;48.152;8.590;2022-08-21T08:00:14;1.88;;;1.67;;
10303;SDS011;5197;48.152;8.590;2022-08-21T08:02:44;3.35;;;1.73;;
10303;SDS011;5197;48.152;8.590;2022-08-21T08:05:13;3.38;;;1.70;;
10303;SDS011;5197;48.152;8.590;2022-08-21T08:07:41;2.70;;;1.80;;
10303;SDS011;5197;48.152;8.590;2022-08-21T08:10:09;2.17;;;1.85;;
10303;SDS011;5197;48.152;8.590;2022-08-21T08:12:37;3.08;;;1.95;;
10303;SDS011;5197;48.152;8.590;2022-08-21T08:15:07;2.90;;;1.83;;
10303;SDS011;5197;48.152;8.590;2022-08-21T08:17:36;4.38;;;2.40;;
10303;SDS011;5197;48.152;8.590;2022-08-21T08:20:08;4.57;;;2.65;;
10303;SDS011;5197;48.152;8.590;2022-08-21T08:22:38;3.47;;;2.22;;
10303;SDS011;5197;48.152;8.590;2022-08-21T08:25:06;5.95;;;2.25;;
10303;SDS011;5197;48.152;8.590;2022-08-21T08:27:36;2.85;;;2.08;;
10303;SDS011;5197;48.152;8.590;2022-08-21T08:30:05;3.88;;;2.28;;
10303;SDS011;5197;48.152;8.590;2022-08-21T08:32:34;3.58;;;2.38;;
10303;SDS011;5197;48.152;8.590;2022-08-21T08:35:02;5.38;;;2.28;;
10303;SDS011;5197;48.152;8.590;2022-08-21T08:37:30;4.75;;;2.20;;
10303;SDS011;5197;48.152;8.590;2022-08-21T08:40:00;4.82;;;2.22;;
10303;SDS011;5197;48.152;8.590;2022-08-21T08:42:31;4.50;;;2.30;;
10303;SDS011;5197;48.152;8.590;2022-08-21T08:45:05;2.65;;;2.15;;
10303;SDS011;5197;48.152;8.590;2022-08-21T08:47:34;3.97;;;2.35;;
10303;SDS011;5197;48.152;8.590;2022-08-21T08:50:07;6.95;;;2.67;;
10303;SDS011;5197;48.152;8.590;2022-08-21T08:52:48;3.63;;;2.30;;
10303;SDS011;5197;48.152;8.590;2022-08-21T08:55:34;2.72;;;2.08;;
10303;SDS011;5197;48.152;8.590;2022-08-21T08:58:03;3.35;;;2.03;;
10303;SDS011;5197;48.152;8.590;2022-08-21T09:00:31;3.58;;;2.42;;
10303;SDS011;5197;48.152;8.590;2022-08-21T09:03:00;5.93;;;2.33;;
10303;SDS011;5197;48.152;8.590;2022-08-21T09:05:30;4.88;;;2.33;;
10303;SDS011;5197;48.152;8.590;2022-08-21T09:16:38;2.05;;;1.80;;
10303;SDS011;5197;48.152;8.590;2022-08-21T09:19:28;7.40;;;2.20;;
10303;SDS011;5197;48.152;8.590;2022-08-21T09:25:12;5.88;;;2.05;;
10303;SDS011;5197;48.152;8.590;2022-08-21T09:27:49;3.90;;;1.60;;
10303;SDS011;5197;48.152;8.590;2022-08-21T09:30:17;3.17;;;1.95;;
10303;SDS011;5197;48.152;8.590;2022-08-21T09:32:45;3.10;;;1.63;;
10303;SDS011;5197;48.152;8.590;2022-08-21T09:35:14;5.45;;;2.08;;
10303;SDS011;5197;48.152;8.590;2022-08-21T09:38:00;2.90;;;1.73;;
10303;SDS011;5197;48.152;8.590;2022-08-21T09:43:01;1.55;;;1.45;;
10303;SDS011;5197;48.152;8.590;2022-08-21T09:45:31;2.38;;;1.58;;
10303;SDS011;5197;48.152;8.590;2022-08-21T09:48:11;2.30;;;1.40;;
10303;SDS011;5197;48.152;8.590;2022-08-21T09:50:40;2.63;;;1.85;;
10303;SDS011;5197;48.152;8.590;2022-08-21T09:53:19;3.17;;;1.45;;
10303;SDS011;5197;48.152;8.590;2022-08-21T09:58:43;4.13;;;1.50;;
10303;SDS011;5197;48.152;8.590;2022-08-21T10:01:20;3.03;;;1.48;;
10303;SDS011;5197;48.152;8.590;2022-08-21T10:03:49;1.88;;;1.70;;
10303;SDS011;5197;48.152;8.590;2022-08-21T10:06:31;2.13;;;1.50;;
10303;SDS011;5197;48.152;8.590;2022-08-21T10:09:06;2.83;;;1.50;;
10303;SDS011;5197;48.152;8.590;2022-08-21T10:12:07;1.83;;;1.50;;
10303;SDS011;5197;48.152;8.590;2022-08-21T10:20:29;2.28;;;1.60;;
10303;SDS011;5197;48.152;8.590;2022-08-21T10:25:58;1.95;;;1.30;;
10303;SDS011;5197;48.152;8.590;2022-08-21T10:31:37;3.33;;;1.70;;
10303;SDS011;5197;48.152;8.590;2022-08-21T10:34:27;3.95;;;1.50;;
10303;SDS011;5197;48.152;8.590;2022-08-21T10:37:30;3.25;;;1.60;;
10303;SDS011;5197;48.152;8.590;2022-08-21T10:48:42;2.25;;;1.50;;
10303;SDS011;5197;48.152;8.590;2022-08-21T10:51:15;3.17;;;1.50;;
10303;SDS011;5197;48.152;8.590;2022-08-21T10:54:05;2.53;;;1.95;;
10303;SDS011;5197;48.152;8.590;2022-08-21T10:56:49;2.22;;;1.60;;
10303;SDS011;5197;48.152;8.590;2022-08-21T10:59:30;3.10;;;1.60;;
10303;SDS011;5197;48.152;8.590;2022-08-21T11:02:40;3.33;;;1.40;;
10303;SDS011;5197;48.152;8.590;2022-08-21T11:05:05;2.63;;;1.33;;
10303;SDS011;5197;48.152;8.590;2022-08-21T11:08:06;4.70;;;1.67;;
10303;SDS011;5197;48.152;8.590;2022-08-21T11:16:45;1.90;;;1.70;;
10303;SDS011;5197;48.152;8.590;2022-08-21T11:22:10;2.30;;;1.67;;
10303;SDS011;5197;48.152;8.590;2022-08-21T11:30:48;3.03;;;1.88;;
10303;SDS011;5197;48.152;8.590;2022-08-21T11:36:34;1.85;;;1.30;;
10303;SDS011;5197;48.152;8.590;2022-08-21T11:39:22;2.47;;;1.70;;
10303;SDS011;5197;48.152;8.590;2022-08-21T11:45:08;1.55;;;1.45;;
10303;SDS011;5197;48.152;8.590;2022-08-21T11:50:28;1.92;;;1.20;;
10303;SDS011;5197;48.152;8.590;2022-08-21T11:55:45;3.45;;;1.52;;
10303;SDS011;5197;48.152;8.590;2022-08-21T11:58:20;3.72;;;1.80;;
10303;SDS011;5197;48.152;8.590;2022-08-21T12:01:37;1.67;;;1.58;;
10303;SDS011;5197;48.152;8.590;2022-08-21T12:06:37;1.10;;;1.10;;
10303;SDS011;5197;48.152;8.590;2022-08-21T12:14:42;1.33;;;1.23;;
10303;SDS011;5197;48.152;8.590;2022-08-21T12:17:19;1.98;;;1.50;;
10303;SDS011;5197;48.152;8.590;2022-08-21T12:19:57;2.65;;;1.58;;
10303;SDS011;5197;48.152;8.590;2022-08-21T12:22:39;3.35;;;1.58;;
10303;SDS011;5197;48.152;8.590;2022-08-21T12:25:08;1.98;;;1.30;;
10303;SDS011;5197;48.152;8.590;2022-08-21T12:30:46;3.40;;;1.55;;
10303;SDS011;5197;48.152;8.590;2022-08-21T12:36:01;1.40;;;1.30;;
10303;SDS011;5197;48.152;8.590;2022-08-21T12:41:27;1.52;;;1.42;;
10303;SDS011;5197;48.152;8.590;2022-08-21T12:44:08;1.30;;;1.20;;
10303;SDS011;5197;48.152;8.590;2022-08-21T12:46:44;1.58;;;1.20;;
10303;SDS011;5197;48.152;8.590;2022-08-21T12:52:14;1.80;;;1.42;;
10303;SDS011;5197;48.152;8.590;2022-08-21T12:54:48;4.55;;;1.52;;
10303;SDS011;5197;48.152;8.590;2022-08-21T12:57:23;1.30;;;1.20;;
10303;SDS011;5197;48.152;8.590;2022-08-21T12:59:55;2.55;;;1.10;;
10303;SDS011;5197;48.152;8.590;2022-08-21T13:02:25;2.42;;;1.10;;
10303;SDS011;5197;48.152;8.590;2022-08-21T13:04:57;1.77;;;1.30;;
10303;SDS011;5197;48.152;8.590;2022-08-21T13:07:32;1.27;;;1.20;;
10303;SDS011;5197;48.152;8.590;2022-08-21T13:10:14;1.30;;;1.20;;
10303;SDS011;5197;48.152;8.590;2022-08-21T13:12:46;1.92;;;1.55;;
10303;SDS011;5197;48.152;8.590;2022-08-21T13:15:14;1.50;;;1.40;;
10303;SDS011;5197;48.152;8.590;2022-08-21T13:17:58;6.22;;;1.50;;
10303;SDS011;5197;48.152;8.590;2022-08-21T13:20:30;1.73;;;1.45;;
10303;SDS011;5197;48.152;8.590;2022-08-21T13:23:01;1.25;;;1.15;;
10303;SDS011;5197;48.152;8.590;2022-08-21T13:25:33;1.55;;;1.38;;
10303;SDS011;5197;48.152;8.590;2022-08-21T13:28:06;1.70;;;1.60;;
10303;SDS011;5197;48.152;8.590;2022-08-21T13:30:44;1.40;;;1.30;;
10303;SDS011;5197;48.152;8.590;2022-08-21T13:33:14;1.60;;;1.50;;
10303;SDS011;5197;48.152;8.590;2022-08-21T13:36:03;1.83;;;1.48;;
10303;SDS011;5197;48.152;8.590;2022-08-21T13:38:35;1.30;;;1.20;;
10303;SDS011;5197;48.152;8.590;2022-08-21T13:41:13;1.33;;;1.20;;
10303;SDS011;5197;48.152;8.590;2022-08-21T13:43:48;1.60;;;1.50;;
10303;SDS011;5197;48.152;8.590;2022-08-21T13:46:24;1.38;;;1.27;;
10303;SDS011;5197;48.152;8.590;2022-08-21T13:48:54;1.52;;;1.42;;
10303;SDS011;5197;48.152;8.590;2022-08-21T13:51:22;1.40;;;1.30;;
10303;SDS011;5197;48.152;8.590;2022-08-21T13:53:51;2.08;;;1.30;;
10303;SDS011;5197;48.152;8.590;2022-08-21T13:56:27;1.23;;;1.13;;
10303;SDS011;5197;48.152;8.590;2022-08-21T13:58:57;1.48;;;1.38;;
10303;SDS011;5197;48.152;8.590;2022-08-21T14:01:27;2.35;;;1.52;;
10303;SDS011;5197;48.152;8.590;2022-08-21T14:04:00;1.40;;;1.30;;
10303;SDS011;5197;48.152;8.590;2022-08-21T14:06:35;1.38;;;1.27;;
10303;SDS011;5197;48.152;8.590;2022-08-21T14:09:08;1.63;;;1.38;;
10303;SDS011;5197;48.152;8.590;2022-08-21T14:11:37;1.55;;;1.45;;
10303;SDS011;5197;48.152;8.590;2022-08-21T14:14:12;1.42;;;1.33;;
10303;SDS011;5197;48.152;8.590;2022-08-21T14:16:56;2.10;;;1.40;;
10303;SDS011;5197;48.152;8.590;2022-08-21T14:19:46;2.22;;;1.60;;
10303;SDS011;5197;48.152;8.590;2022-08-21T14:22:30;2.67;;;1.70;;
10303;SDS011;5197;48.152;8.590;2022-08-21T14:30:28;1.95;;;1.42;;
10303;SDS011;5197;48.152;8.590;2022-08-21T14:33:07;3.97;;;1.48;;
10303;SDS011;5197;48.152;8.590;2022-08-21T14:35:36;1.77;;;1.60;;
10303;SDS011;5197;48.152;8.590;2022-08-21T14:38:11;2.55;;;1.50;;
10303;SDS011;5197;48.152;8.590;2022-08-21T14:40:42;1.90;;;1.52;;
10303;SDS011;5197;48.152;8.590;2022-08-21T14:43:12;1.95;;;1.70;;
10303;SDS011;5197;48.152;8.590;2022-08-21T14:45:39;1.73;;;1.63;;
10303;SDS011;5197;48.152;8.590;2022-08-21T14:48:07;1.80;;;1.70;;
10303;SDS011;5197;48.152;8.590;2022-08-21T14:50:34;2.13;;;1.50;;
10303;SDS011;5197;48.152;8.590;2022-08-21T14:53:01;2.10;;;1.80;;
10303;SDS011;5197;48.152;8.590;2022-08-21T14:55:37;1.60;;;1.38;;
10303;SDS011;5197;48.152;8.590;2022-08-21T14:58:24;2.03;;;1.67;;
10303;SDS011;5197;48.152;8.590;2022-08-21T15:00:51;2.00;;;1.88;;
10303;SDS011;5197;48.152;8.590;2022-08-21T15:03:21;1.73;;;1.63;;
10303;SDS011;5197;48.152;8.590;2022-08-21T15:05:48;1.80;;;1.70;;
10303;SDS011;5197;48.152;8.590;2022-08-21T15:08:16;2.15;;;1.55;;
10303;SDS011;5197;48.152;8.590;2022-08-21T15:10:44;2.30;;;1.60;;
10303;SDS011;5197;48.152;8.590;2022-08-21T15:13:32;1.60;;;1.50;;
10303;SDS011;5197;48.152;8.590;2022-08-21T15:15:59;1.30;;;1.30;;
10303;SDS011;5197;48.152;8.590;2022-08-21T15:18:28;1.75;;;1.65;;
10303;SDS011;5197;48.152;8.590;2022-08-21T15:20:56;1.40;;;1.30;;
10303;SDS011;5197;48.152;8.590;2022-08-21T15:23:23;3.28;;;1.58;;
10303;SDS011;5197;48.152;8.590;2022-08-21T15:25:50;1.70;;;1.48;;
10303;SDS011;5197;48.152;8.590;2022-08-21T15:28:19;2.78;;;1.50;;
10303;SDS011;5197;48.152;8.590;2022-08-21T15:30:49;1.63;;;1.50;;
10303;SDS011;5197;48.152;8.590;2022-08-21T15:33:18;1.40;;;1.30;;
10303;SDS011;5197;48.152;8.590;2022-08-21T15:35:45;1.70;;;1.60;;
10303;SDS011;5197;48.152;8.590;2022-08-21T15:38:12;1.50;;;1.40;;
10303;SDS011;5197;48.152;8.590;2022-08-21T15:40:41;1.92;;;1.73;;
10303;SDS011;5197;48.152;8.590;2022-08-21T15:43:30;3.17;;;1.88;;
10303;SDS011;5197;48.152;8.590;2022-08-21T15:46:03;2.72;;;1.95;;
10303;SDS011;5197;48.152;8.590;2022-08-21T15:48:33;1.45;;;1.35;;
10303;SDS011;5197;48.152;8.590;2022-08-21T15:51:00;1.60;;;1.50;;
10303;SDS011;5197;48.152;8.590;2022-08-21T15:53:27;1.77;;;1.67;;
10303;SDS011;5197;48.152;8.590;2022-08-21T15:55:54;1.67;;;1.58;;
10303;SDS011;5197;48.152;8.590;2022-08-21T15:58:21;1.70;;;1.58;;
10303;SDS011;5197;48.152;8.590;2022-08-21T16:00:52;1.88;;;1.70;;
10303;SDS011;5197;48.152;8.590;2022-08-21T16:03:20;1.85;;;1.70;;
10303;SDS011;5197;48.152;8.590;2022-08-21T16:05:48;1.48;;;1.38;;
10303;SDS011;5197;48.152;8.590;2022-08-21T16:08:19;1.75;;;1.65;;
10303;SDS011;5197;48.152;8.590;2022-08-21T16:10:46;1.70;;;1.60;;
10303;SDS011;5197;48.152;8.590;2022-08-21T16:13:24;1.83;;;1.55;;
10303;SDS011;5197;48.152;8.590;2022-08-21T16:15:54;1.98;;;1.80;;
10303;SDS011;5197;48.152;8.590;2022-08-21T16:18:21;2.05;;;1.88;;
10303;SDS011;5197;48.152;8.590;2022-08-21T16:20:49;1.60;;;1.50;;
10303;SDS011;5197;48.152;8.590;2022-08-21T16:23:16;1.65;;;1.55;;
10303;SDS011;5197;48.152;8.590;2022-08-21T16:25:43;1.50;;;1.38;;
10303;SDS011;5197;48.152;8.590;2022-08-21T16:28:12;1.77;;;1.67;;
10303;SDS011;5197;48.152;8.590;2022-08-21T16:30:42;1.90;;;1.75;;
10303;SDS011;5197;48.152;8.590;2022-08-21T16:33:24;1.90;;;1.77;;
10303;SDS011;5197;48.152;8.590;2022-08-21T16:35:59;1.98;;;1.80;;
10303;SDS011;5197;48.152;8.590;2022-08-21T16:38:27;1.85;;;1.55;;
10303;SDS011;5197;48.152;8.590;2022-08-21T16:40:54;1.80;;;1.70;;
10303;SDS011;5197;48.152;8.590;2022-08-21T16:43:22;1.70;;;1.60;;
10303;SDS011;5197;48.152;8.590;2022-08-21T16:45:52;1.90;;;1.80;;
10303;SDS011;5197;48.152;8.590;2022-08-21T16:48:20;1.70;;;1.60;;
10303;SDS011;5197;48.152;8.590;2022-08-21T16:50:47;5.03;;;1.77;;
10303;SDS011;5197;48.152;8.590;2022-08-21T16:53:16;1.73;;;1.63;;
10303;SDS011;5197;48.152;8.590;2022-08-21T16:55:44;2.03;;;1.80;;
10303;SDS011;5197;48.152;8.590;2022-08-21T16:58:46;1.90;;;1.70;;